Time;durP1;ratioP1;P1;durP2;ratioP2;P2;SDS_P1;SDS_P2;PMS_P1;PMS_P2;Temp;Humidity;BMP_temperature;BMP_pressure;BME280_temperature;BME280_humidity;BME280_pressure;Samples;Min_cycle;Max_cycle;Signal;HPM_P1;HPM_P2
2024/03/02 00:00:21;;;;;;;6.68;3.92;;;8.30;99.90;;;;;;5021001;28;20196;-65
2024/03/02 00:02:48;;;;;;;8.15;4.10;;;8.30;99.90;;;;;;5020433;28;20206;-63
2024/03/02 00:05:19;;;;;;;8.23;4.32;;;8.30;99.90;;;;;;5006952;28;20278;-63
2024/03/02 00:07:55;;;;;;;6.47;4.72;;;8.30;99.90;;;;;;5020398;28;20310;-63
2024/03/02 00:10:40;;;;;;;5.80;3.90;;;8.30;99.90;;;;;;5033997;28;20238;-62
2024/03/02 00:13:07;;;;;;;7.90;4.22;;;8.30;99.90;;;;;;5020009;28;20644;-65
2024/03/02 00:15:46;;;;;;;5.85;4.32;;;8.20;99.90;;;;;;5020977;28;21178;-63
2024/03/02 00:18:14;;;;;;;8.50;4.57;;;8.20;99.90;;;;;;5020488;28;20883;-64
2024/03/02 00:20:41;;;;;;;5.97;4.35;;;8.20;99.90;;;;;;5020793;28;20203;-65
2024/03/02 00:23:08;;;;;;;6.30;4.43;;;8.20;99.90;;;;;;5020736;28;20758;-63
2024/03/02 00:25:40;;;;;;;5.45;4.65;;;8.20;99.90;;;;;;5020537;28;20188;-62
2024/03/02 00:28:07;;;;;;;5.75;4.53;;;8.20;99.90;;;;;;5022494;28;20226;-64
2024/03/02 00:31:04;;;;;;;8.73;4.90;;;8.20;99.90;;;;;;5024515;28;20219;-63
2024/03/02 00:33:38;;;;;;;7.50;4.53;;;8.10;99.90;;;;;;5024213;28;20211;-63
2024/03/02 00:36:06;;;;;;;6.90;4.53;;;8.10;99.90;;;;;;5024057;28;20203;-64
2024/03/02 00:38:33;;;;;;;5.47;4.43;;;8.20;99.90;;;;;;5037319;28;20200;-64
2024/03/02 00:41:03;;;;;;;5.40;4.30;;;8.20;99.90;;;;;;5022913;28;20191;-64
2024/03/02 00:43:52;;;;;;;6.45;4.63;;;8.10;99.90;;;;;;5023830;28;20188;-64
2024/03/02 00:46:19;;;;;;;7.38;4.63;;;8.10;99.90;;;;;;5038695;28;20261;-63
2024/03/02 00:48:54;;;;;;;6.35;4.50;;;8.10;99.90;;;;;;5023760;28;20293;-63
2024/03/02 00:51:21;;;;;;;7.07;5.22;;;8.10;99.90;;;;;;5023818;28;20188;-63
2024/03/02 00:53:47;;;;;;;7.47;4.65;;;8.10;99.90;;;;;;5024116;28;21181;-66
2024/03/02 00:56:13;;;;;;;6.43;4.45;;;8.20;99.90;;;;;;5023813;28;20180;-65
2024/03/02 00:58:40;;;;;;;6.20;4.68;;;8.20;99.90;;;;;;5023506;28;20194;-64
2024/03/02 01:01:06;;;;;;;7.68;5.00;;;8.20;99.90;;;;;;5024301;28;20180;-64
2024/03/02 01:03:33;;;;;;;7.72;5.30;;;8.20;99.90;;;;;;5023701;28;20183;-65
2024/03/02 01:05:58;;;;;;;7.53;4.70;;;8.20;99.90;;;;;;5035185;28;20226;-64
2024/03/02 01:08:25;;;;;;;6.25;4.53;;;8.20;99.90;;;;;;5038113;28;20216;-62
2024/03/02 01:10:51;;;;;;;11.35;5.00;;;8.20;99.90;;;;;;5023572;28;20179;-62
2024/03/02 01:13:16;;;;;;;8.20;4.93;;;8.20;99.90;;;;;;5023435;28;20238;-64
2024/03/02 01:15:42;;;;;;;8.13;4.90;;;8.20;99.90;;;;;;5023254;28;20735;-64
2024/03/02 01:18:08;;;;;;;7.28;4.97;;;8.20;99.90;;;;;;5023434;28;20551;-64
2024/03/02 01:20:34;;;;;;;6.38;4.95;;;8.30;99.90;;;;;;5023366;28;20238;-63
2024/03/02 01:23:00;;;;;;;7.75;5.22;;;8.20;99.90;;;;;;5023009;28;20633;-65
2024/03/02 01:25:25;;;;;;;6.05;4.82;;;8.30;99.90;;;;;;5009050;28;20192;-64
2024/03/02 01:27:51;;;;;;;7.05;5.00;;;8.20;99.90;;;;;;5023203;28;20235;-64
2024/03/02 01:30:17;;;;;;;7.70;5.10;;;8.20;99.90;;;;;;5021536;28;20219;-64
2024/03/02 01:32:43;;;;;;;6.50;5.07;;;8.20;99.90;;;;;;5023726;28;20184;-64
2024/03/02 01:35:08;;;;;;;8.18;5.40;;;8.30;99.90;;;;;;5022918;28;20196;-66
2024/03/02 01:37:34;;;;;;;7.45;5.22;;;8.20;99.90;;;;;;5038143;28;20184;-64
2024/03/02 01:40:00;;;;;;;6.70;4.90;;;8.30;99.90;;;;;;5010424;28;20224;-64
2024/03/02 01:42:26;;;;;;;10.95;4.97;;;8.30;99.90;;;;;;5036285;28;20199;-63
2024/03/02 01:44:52;;;;;;;6.72;5.18;;;8.30;99.90;;;;;;5037866;28;20200;-66
2024/03/02 01:47:18;;;;;;;9.38;5.18;;;8.30;99.90;;;;;;5022785;28;20235;-64
2024/03/02 01:49:43;;;;;;;10.77;5.35;;;8.30;99.90;;;;;;5022805;28;20310;-65
2024/03/02 01:52:10;;;;;;;7.65;4.82;;;8.30;99.90;;;;;;5011555;28;20230;-63
2024/03/02 01:54:36;;;;;;;8.30;5.18;;;8.30;99.90;;;;;;5022045;28;20210;-65
2024/03/02 01:57:02;;;;;;;8.68;5.45;;;8.30;99.90;;;;;;5022994;28;20184;-63
2024/03/02 01:59:28;;;;;;;9.23;5.47;;;8.30;99.90;;;;;;5022562;28;20187;-67
2024/03/02 02:01:54;;;;;;;7.82;5.30;;;8.40;99.90;;;;;;5021862;28;20204;-64
2024/03/02 02:04:22;;;;;;;8.38;5.55;;;8.40;99.90;;;;;;5020306;28;20187;-66
2024/03/02 02:06:48;;;;;;;8.35;5.55;;;8.40;99.90;;;;;;5021429;28;20610;-65
2024/03/02 02:09:14;;;;;;;9.93;5.60;;;8.40;99.90;;;;;;5022504;28;20265;-63
2024/03/02 02:11:43;;;;;;;7.55;5.60;;;8.40;99.90;;;;;;5005047;28;20192;-65
2024/03/02 02:14:08;;;;;;;7.40;5.30;;;8.40;99.90;;;;;;5021915;28;20183;-63
2024/03/02 02:16:34;;;;;;;8.57;6.03;;;8.30;99.90;;;;;;5022025;28;20211;-64
2024/03/02 02:19:00;;;;;;;8.70;5.18;;;8.30;99.90;;;;;;5022108;28;21153;-64
2024/03/02 02:21:26;;;;;;;7.63;5.05;;;8.40;99.90;;;;;;5021966;28;20242;-64
2024/03/02 02:23:52;;;;;;;6.72;5.35;;;8.40;99.90;;;;;;5022021;28;20668;-64
2024/03/02 02:26:17;;;;;;;12.35;5.00;;;8.40;99.90;;;;;;5021696;28;20222;-64
2024/03/02 02:28:46;;;;;;;6.50;4.55;;;8.40;99.90;;;;;;5021800;28;20208;-65
2024/03/02 02:31:15;;;;;;;8.93;5.70;;;8.40;99.90;;;;;;5021792;28;20231;-64
2024/03/02 02:33:42;;;;;;;9.07;5.47;;;8.40;99.90;;;;;;5021342;28;20186;-64
2024/03/02 02:36:08;;;;;;;8.23;5.45;;;8.40;99.90;;;;;;5020732;28;20192;-64
2024/03/02 02:38:42;;;;;;;7.25;5.40;;;8.40;99.90;;;;;;5020586;28;21411;-65
2024/03/02 02:41:08;;;;;;;7.05;5.70;;;8.50;99.90;;;;;;5036471;28;20192;-63
2024/03/02 02:43:34;;;;;;;8.95;5.50;;;8.40;99.90;;;;;;5021647;28;20193;-64
2024/03/02 02:46:00;;;;;;;6.75;5.07;;;8.40;99.90;;;;;;5021582;28;20301;-64
2024/03/02 02:48:25;;;;;;;8.25;5.10;;;8.40;99.90;;;;;;5021700;28;20187;-64
2024/03/02 02:50:51;;;;;;;6.03;4.75;;;8.50;99.90;;;;;;5020614;28;20216;-64
2024/03/02 02:53:17;;;;;;;6.13;4.88;;;8.50;99.90;;;;;;5021505;28;20176;-64
2024/03/02 02:55:43;;;;;;;5.50;4.47;;;8.50;99.90;;;;;;5021153;28;20200;-66
2024/03/02 02:58:12;;;;;;;7.20;5.13;;;8.50;99.90;;;;;;5036616;28;20214;-66
2024/03/02 03:00:39;;;;;;;7.45;4.38;;;8.50;99.90;;;;;;5019796;28;20188;-66
2024/03/02 03:03:05;;;;;;;7.15;4.55;;;8.60;99.90;;;;;;5020713;28;20194;-65
2024/03/02 03:05:31;;;;;;;7.78;4.35;;;8.60;99.90;;;;;;5021271;28;20176;-66
2024/03/02 03:07:57;;;;;;;5.80;4.20;;;8.60;99.90;;;;;;5021421;28;20184;-65
2024/03/02 03:10:23;;;;;;;6.95;4.43;;;8.70;99.90;;;;;;5021283;28;20219;-68
2024/03/02 03:12:49;;;;;;;7.32;3.72;;;8.70;99.90;;;;;;5036307;28;20262;-70
2024/03/02 03:15:16;;;;;;;9.27;4.05;;;8.80;99.90;;;;;;5005919;28;20192;-67
2024/03/02 03:17:42;;;;;;;6.10;4.35;;;8.80;99.90;;;;;;5021030;28;20262;-69
2024/03/02 03:20:11;;;;;;;5.45;3.55;;;8.80;99.90;;;;;;5020859;28;20195;-68
2024/03/02 03:22:37;;;;;;;5.55;3.70;;;8.80;99.90;;;;;;5020000;28;20215;-69
2024/03/02 03:25:03;;;;;;;5.13;3.80;;;8.80;99.90;;;;;;5021126;28;20660;-68
2024/03/02 03:27:29;;;;;;;6.47;3.90;;;8.90;99.90;;;;;;5020578;28;20184;-69
2024/03/02 03:29:55;;;;;;;5.57;3.35;;;8.90;99.90;;;;;;5021409;28;20219;-68
2024/03/02 03:32:21;;;;;;;4.90;3.03;;;9.00;99.90;;;;;;5020704;28;20188;-70
2024/03/02 03:34:48;;;;;;;5.18;3.22;;;9.00;99.90;;;;;;5021055;28;20636;-70
2024/03/02 03:37:15;;;;;;;5.85;3.63;;;9.00;99.90;;;;;;5021146;28;20295;-68
2024/03/02 03:39:41;;;;;;;4.47;2.90;;;9.00;99.90;;;;;;5020240;28;20179;-70
2024/03/02 03:42:06;;;;;;;4.38;3.20;;;9.00;99.90;;;;;;5036210;28;20188;-70
2024/03/02 03:44:33;;;;;;;4.15;3.10;;;9.00;99.90;;;;;;5020729;28;20188;-67
2024/03/02 03:47:00;;;;;;;6.15;3.45;;;9.10;99.90;;;;;;5020432;28;20254;-67
2024/03/02 03:49:26;;;;;;;4.50;2.78;;;9.00;99.90;;;;;;5034267;28;20643;-67
2024/03/02 03:51:52;;;;;;;4.18;3.42;;;9.00;99.90;;;;;;5020960;28;20176;-67
2024/03/02 03:54:17;;;;;;;5.03;3.10;;;8.90;99.90;;;;;;5020872;28;20608;-67
2024/03/02 03:56:43;;;;;;;5.57;2.92;;;8.90;99.90;;;;;;5020282;28;20186;-62
2024/03/02 03:59:09;;;;;;;5.68;3.70;;;8.90;99.90;;;;;;5021053;28;20200;-66
2024/03/02 04:01:35;;;;;;;7.00;3.35;;;8.80;99.90;;;;;;5020619;28;20192;-66
2024/03/02 04:04:03;;;;;;;7.05;3.30;;;8.80;99.90;;;;;;5020538;28;20200;-64
2024/03/02 04:06:29;;;;;;;4.35;3.28;;;8.80;99.90;;;;;;5020850;28;20217;-63
2024/03/02 04:08:55;;;;;;;5.85;3.47;;;8.70;99.90;;;;;;5020296;28;21143;-64
2024/03/02 04:11:21;;;;;;;4.78;3.40;;;8.70;99.90;;;;;;5020953;28;20282;-65
2024/03/02 04:13:47;;;;;;;7.00;4.07;;;8.70;99.90;;;;;;5008813;28;20195;-66
2024/03/02 04:16:12;;;;;;;4.80;3.63;;;8.70;99.90;;;;;;5033716;28;20563;-66
2024/03/02 04:18:39;;;;;;;5.63;3.80;;;8.70;99.90;;;;;;5020205;28;20540;-65
2024/03/02 04:21:05;;;;;;;8.50;3.90;;;8.70;99.90;;;;;;5035205;28;20195;-64
2024/03/02 04:23:31;;;;;;;4.78;3.50;;;8.60;99.90;;;;;;5020516;28;20233;-67
2024/03/02 04:25:56;;;;;;;6.40;3.50;;;8.60;99.90;;;;;;5035843;28;20282;-66
2024/03/02 04:28:22;;;;;;;4.88;3.63;;;8.60;99.90;;;;;;5020407;28;20519;-64
2024/03/02 04:30:48;;;;;;;5.20;3.83;;;8.60;99.90;;;;;;5020474;28;20231;-65
2024/03/02 04:33:14;;;;;;;5.47;3.92;;;8.60;99.90;;;;;;5018486;28;20267;-65
2024/03/02 04:35:39;;;;;;;5.40;3.58;;;8.60;99.90;;;;;;5020251;28;20231;-64
2024/03/02 04:38:05;;;;;;;6.30;3.38;;;8.60;99.90;;;;;;5020150;28;20200;-66
2024/03/02 04:40:32;;;;;;;5.70;3.35;;;8.60;99.90;;;;;;5033870;28;20222;-67
2024/03/02 04:42:59;;;;;;;4.57;3.60;;;8.70;99.90;;;;;;5035657;28;20200;-67
2024/03/02 04:45:24;;;;;;;5.78;3.80;;;8.70;99.90;;;;;;5020674;28;20199;-67
2024/03/02 04:47:50;;;;;;;4.32;3.47;;;8.70;99.90;;;;;;5020173;28;20270;-66
2024/03/02 04:50:16;;;;;;;7.60;3.47;;;8.80;99.90;;;;;;5032134;28;20294;-68
2024/03/02 04:52:42;;;;;;;4.50;3.22;;;8.80;99.90;;;;;;5019501;28;20226;-66
2024/03/02 04:55:24;;;;;;;5.50;3.45;;;8.80;99.90;;;;;;5033662;28;20188;-67
2024/03/02 04:57:54;;;;;;;7.20;3.50;;;8.80;99.90;;;;;;5020039;28;20242;-68
2024/03/02 05:00:20;;;;;;;4.30;3.00;;;8.80;99.90;;;;;;5020033;28;20191;-67
2024/03/02 05:02:46;;;;;;;7.82;3.53;;;8.80;99.90;;;;;;5015971;28;20192;-67
2024/03/02 05:05:12;;;;;;;4.13;3.05;;;8.80;99.90;;;;;;5020003;28;20297;-69
2024/03/02 05:07:38;;;;;;;4.28;3.53;;;8.70;99.90;;;;;;5019880;28;20188;-67
2024/03/02 05:10:03;;;;;;;3.90;3.30;;;8.70;99.90;;;;;;5009646;28;20247;-66
2024/03/02 05:15:14;;;;;;;5.70;3.80;;;8.60;99.90;;;;;;5022140;28;20724;-66
2024/03/02 05:17:43;;;;;;;5.68;3.47;;;8.60;99.90;;;;;;5023712;28;20180;-67
2024/03/02 05:20:09;;;;;;;5.75;3.15;;;8.60;99.90;;;;;;5035097;28;20192;-66
2024/03/02 05:22:36;;;;;;;5.05;3.63;;;8.70;99.90;;;;;;5036256;28;20211;-64
2024/03/02 05:25:02;;;;;;;5.80;3.55;;;8.70;99.90;;;;;;5023453;28;20291;-63
2024/03/02 05:27:28;;;;;;;4.88;3.55;;;8.70;99.90;;;;;;5022969;28;20187;-67
2024/03/02 05:29:53;;;;;;;4.93;3.20;;;8.70;99.90;;;;;;4991343;28;20215;-68
2024/03/02 05:32:19;;;;;;;6.47;3.60;;;8.70;99.90;;;;;;5038532;28;20674;-67
2024/03/02 05:34:45;;;;;;;5.25;3.90;;;8.70;99.90;;;;;;5021789;28;20191;-67
2024/03/02 05:37:11;;;;;;;7.15;3.90;;;8.70;99.90;;;;;;5008935;28;20199;-63
2024/03/02 05:39:37;;;;;;;4.43;3.47;;;8.70;99.90;;;;;;5022297;28;20291;-65
2024/03/02 05:42:03;;;;;;;6.43;3.70;;;8.70;99.90;;;;;;5022861;28;21157;-66
2024/03/02 05:44:29;;;;;;;5.22;3.67;;;8.70;99.90;;;;;;5022521;28;20188;-67
2024/03/02 05:46:55;;;;;;;6.72;3.75;;;8.70;99.90;;;;;;5038017;28;20240;-68
2024/03/02 05:49:20;;;;;;;5.65;3.72;;;8.70;99.90;;;;;;5022453;28;20306;-66
2024/03/02 05:51:46;;;;;;;4.85;3.78;;;8.70;99.90;;;;;;5022590;28;20305;-66
2024/03/02 05:54:12;;;;;;;7.25;4.13;;;8.80;99.90;;;;;;5038028;28;20192;-67
2024/03/02 05:56:38;;;;;;;5.90;4.25;;;8.70;99.90;;;;;;5022838;28;20633;-67
2024/03/02 05:59:12;;;;;;;7.63;4.43;;;8.80;99.90;;;;;;5022286;28;20208;-67
2024/03/02 06:01:52;;;;;;;7.70;3.88;;;8.80;99.90;;;;;;5021896;28;20202;-68
2024/03/02 06:04:18;;;;;;;4.60;3.45;;;8.80;99.90;;;;;;5036154;28;20214;-66
2024/03/02 06:06:44;;;;;;;7.03;3.72;;;8.80;99.90;;;;;;5023133;28;20211;-66
2024/03/02 06:09:13;;;;;;;6.13;3.78;;;8.80;99.90;;;;;;5022232;28;20254;-67
2024/03/02 06:11:40;;;;;;;6.00;3.70;;;8.80;99.90;;;;;;5007498;28;20246;-66
2024/03/02 06:14:07;;;;;;;7.03;3.67;;;8.90;99.90;;;;;;5022226;28;21160;-67
2024/03/02 06:16:33;;;;;;;6.10;3.70;;;8.90;99.90;;;;;;5021027;28;20279;-66
2024/03/02 06:18:59;;;;;;;6.63;3.92;;;8.90;99.90;;;;;;5009954;28;20211;-65
2024/03/02 06:21:26;;;;;;;5.97;4.00;;;8.90;99.90;;;;;;5022428;28;20218;-66
2024/03/02 06:23:52;;;;;;;5.47;3.50;;;8.90;99.90;;;;;;5021293;28;20254;-67
2024/03/02 06:26:18;;;;;;;5.50;3.65;;;8.90;99.90;;;;;;5036759;28;20214;-67
2024/03/02 06:28:44;;;;;;;6.63;3.55;;;9.00;99.90;;;;;;5036824;28;20192;-65
2024/03/02 06:31:10;;;;;;;7.40;3.58;;;9.00;99.90;;;;;;5022432;28;20180;-64
2024/03/02 06:33:36;;;;;;;6.82;3.80;;;9.00;99.90;;;;;;5020850;28;20184;-66
2024/03/02 06:36:02;;;;;;;5.47;3.72;;;9.00;99.90;;;;;;5021558;28;20184;-64
2024/03/02 06:38:28;;;;;;;5.82;3.53;;;8.90;99.90;;;;;;5021216;28;20206;-68
2024/03/02 06:40:55;;;;;;;7.25;4.20;;;8.90;99.90;;;;;;5021405;28;20203;-70
2024/03/02 06:43:24;;;;;;;8.52;4.60;;;8.90;99.90;;;;;;5034943;28;20326;-70
2024/03/02 06:45:53;;;;;;;8.23;4.22;;;8.80;99.90;;;;;;5033667;28;20616;-68
2024/03/02 06:48:23;;;;;;;5.95;4.38;;;8.80;99.90;;;;;;5020996;28;20236;-71
2024/03/02 06:50:49;;;;;;;6.40;4.00;;;8.80;99.90;;;;;;5019675;28;20272;-67
2024/03/02 06:53:19;;;;;;;8.63;4.50;;;8.80;99.90;;;;;;5021141;28;20264;-67
2024/03/02 06:55:46;;;;;;;8.25;5.18;;;8.80;99.90;;;;;;5020710;28;20241;-71
2024/03/02 06:58:14;;;;;;;4.63;3.70;;;8.70;99.90;;;;;;5025102;28;20199;-71
2024/03/02 07:00:40;;;;;;;6.53;3.60;;;8.70;99.90;;;;;;5019859;28;20223;-70
2024/03/02 07:03:06;;;;;;;6.38;4.00;;;8.70;99.90;;;;;;5035169;28;20529;-69
2024/03/02 07:05:32;;;;;;;4.38;3.20;;;8.70;99.90;;;;;;5021616;28;20568;-70
2024/03/02 07:07:58;;;;;;;4.82;3.30;;;8.70;99.90;;;;;;5019602;28;20211;-69
2024/03/02 07:10:24;;;;;;;4.18;3.00;;;8.60;99.90;;;;;;5019271;28;20219;-68
2024/03/02 07:12:49;;;;;;;4.63;3.30;;;8.60;99.90;;;;;;5036527;28;20196;-68
2024/03/02 07:17:53;;;;;;;6.57;3.00;;;8.60;99.90;;;;;;5020935;28;20294;-70
2024/03/02 07:20:18;;;;;;;5.75;3.58;;;8.60;99.90;;;;;;5020952;28;20291;-70
2024/03/02 07:22:44;;;;;;;7.00;3.10;;;8.60;99.90;;;;;;5020123;28;20265;-69
2024/03/02 07:25:10;;;;;;;5.53;3.78;;;8.50;99.90;;;;;;5021088;28;20184;-69
2024/03/02 07:27:36;;;;;;;5.45;3.58;;;8.60;99.90;;;;;;5020486;28;20310;-66
2024/03/02 07:30:03;;;;;;;4.50;3.43;;;8.70;99.90;;;;;;5020366;28;20464;-65
2024/03/02 07:32:29;;;;;;;8.75;3.83;;;8.80;99.90;;;;;;5020271;28;20187;-64
2024/03/02 07:34:55;;;;;;;6.30;4.30;;;8.80;99.90;;;;;;5035504;28;20180;-65
2024/03/02 07:37:22;;;;;;;8.48;4.28;;;8.90;99.90;;;;;;5019366;28;20215;-64
2024/03/02 07:39:48;;;;;;;5.95;4.22;;;8.90;99.90;;;;;;5020329;28;20195;-64
2024/03/02 07:42:14;;;;;;;7.82;4.80;;;9.00;99.90;;;;;;5019133;28;20199;-64
2024/03/02 07:44:39;;;;;;;7.50;5.00;;;9.10;99.90;;;;;;5020256;28;20191;-64
2024/03/02 07:47:06;;;;;;;6.25;4.20;;;9.10;99.90;;;;;;5020763;28;20281;-65
2024/03/02 07:49:32;;;;;;;7.70;5.45;;;9.20;99.90;;;;;;5005065;28;20212;-64
2024/03/02 07:51:58;;;;;;;7.70;4.50;;;9.20;99.90;;;;;;5035881;28;20195;-65
2024/03/02 07:54:24;;;;;;;10.23;4.95;;;9.20;99.90;;;;;;5020322;28;20176;-64
2024/03/02 07:56:50;;;;;;;6.50;5.22;;;9.20;99.90;;;;;;5020519;28;20263;-65
2024/03/02 07:59:15;;;;;;;8.52;4.75;;;9.10;99.90;;;;;;5020385;28;21009;-65
2024/03/02 08:01:41;;;;;;;7.72;4.65;;;9.20;99.90;;;;;;5019301;28;20564;-66
2024/03/02 08:04:07;;;;;;;8.02;4.80;;;9.20;99.90;;;;;;5018953;28;20195;-63
2024/03/02 08:06:33;;;;;;;10.77;4.65;;;9.20;99.90;;;;;;5020575;28;20180;-64
2024/03/02 08:09:00;;;;;;;7.75;4.75;;;9.20;99.90;;;;;;5020510;28;20219;-66
2024/03/02 08:11:30;;;;;;;6.22;4.00;;;9.20;99.90;;;;;;5018884;28;20647;-65
2024/03/02 08:13:56;;;;;;;5.80;4.07;;;9.20;99.90;;;;;;5020235;28;20666;-66
2024/03/02 08:16:23;;;;;;;7.57;3.85;;;9.20;99.90;;;;;;5035761;28;20196;-64
2024/03/02 08:18:49;;;;;;;6.38;3.28;;;9.20;99.90;;;;;;5035477;28;20246;-64
2024/03/02 08:21:16;;;;;;;9.65;4.55;;;9.20;99.90;;;;;;5019678;28;20199;-64
2024/03/02 08:23:42;;;;;;;5.05;3.20;;;9.20;99.90;;;;;;5019976;28;20609;-66
2024/03/02 08:26:09;;;;;;;5.05;3.33;;;9.20;99.90;;;;;;5020109;28;20521;-66
2024/03/02 08:28:35;;;;;;;4.93;3.10;;;9.20;99.90;;;;;;5034981;28;20661;-65
2024/03/02 08:31:01;;;;;;;4.85;3.50;;;9.20;99.90;;;;;;5020052;28;20939;-64
2024/03/02 08:33:26;;;;;;;5.22;2.67;;;9.30;99.90;;;;;;5019221;28;20275;-70
2024/03/02 08:35:52;;;;;;;4.75;2.40;;;9.30;99.90;;;;;;5020248;28;20215;-64
2024/03/02 08:38:18;;;;;;;4.00;2.50;;;9.30;99.90;;;;;;5019917;28;20263;-64
2024/03/02 08:40:44;;;;;;;4.75;2.90;;;9.30;99.90;;;;;;5019665;28;20212;-62
2024/03/02 08:43:10;;;;;;;3.78;2.53;;;9.40;99.90;;;;;;5019237;28;20246;-64
2024/03/02 08:45:36;;;;;;;4.55;2.70;;;9.40;99.90;;;;;;5035302;28;20180;-68
2024/03/02 08:48:02;;;;;;;6.25;2.40;;;9.50;99.90;;;;;;5019340;28;20711;-64
2024/03/02 08:50:27;;;;;;;3.40;2.65;;;9.60;99.90;;;;;;5023818;28;20218;-65
2024/03/02 08:52:53;;;;;;;3.60;2.15;;;9.70;99.90;;;;;;5023694;28;20265;-64
2024/03/02 08:55:19;;;;;;;3.72;2.20;;;9.90;99.90;;;;;;5023655;28;20183;-70
2024/03/02 08:57:45;;;;;;;5.80;2.30;;;10.00;99.90;;;;;;5023645;28;20195;-72
2024/03/02 09:00:11;;;;;;;4.90;2.40;;;10.20;99.90;;;;;;5038766;28;20854;-68
2024/03/02 09:02:37;;;;;;;5.50;2.20;;;10.20;99.90;;;;;;5037813;28;20200;-67
2024/03/02 09:05:05;;;;;;;3.40;2.10;;;10.30;99.90;;;;;;5022399;28;20200;-67
2024/03/02 09:07:30;;;;;;;3.20;2.03;;;10.40;99.90;;;;;;5023378;28;20679;-69
2024/03/02 09:09:56;;;;;;;2.63;2.03;;;10.60;99.90;;;;;;5023406;28;20223;-68
2024/03/02 09:12:22;;;;;;;5.32;2.47;;;10.70;99.90;;;;;;5023758;28;20192;-66
2024/03/02 09:14:48;;;;;;;2.53;2.10;;;10.80;99.90;;;;;;5023203;28;20279;-65
2024/03/02 09:17:13;;;;;;;3.35;1.88;;;10.80;99.90;;;;;;5023289;28;20179;-65
2024/03/02 09:19:39;;;;;;;3.00;1.80;;;10.90;99.90;;;;;;5022836;28;20287;-64
2024/03/02 09:22:05;;;;;;;5.72;2.28;;;11.00;99.90;;;;;;5038157;28;20238;-64
2024/03/02 09:24:33;;;;;;;2.42;1.90;;;11.00;99.90;;;;;;5020936;28;20195;-65
2024/03/02 09:26:59;;;;;;;4.18;2.00;;;11.10;99.90;;;;;;5022096;28;20200;-62
2024/03/02 09:29:25;;;;;;;5.45;2.50;;;11.20;99.90;;;;;;5022935;28;20261;-63
2024/03/02 09:31:50;;;;;;;3.15;1.90;;;11.30;99.90;;;;;;5023444;28;20196;-63
2024/03/02 09:34:17;;;;;;;3.55;2.08;;;11.30;99.90;;;;;;5022277;28;20188;-64
2024/03/02 09:36:43;;;;;;;4.00;1.92;;;11.30;99.90;;;;;;5022686;28;20188;-65
2024/03/02 09:39:09;;;;;;;4.05;1.80;;;11.30;99.90;;;;;;5023028;28;20184;-65
2024/03/02 09:41:36;;;;;;;3.33;1.65;;;11.40;99.90;;;;;;5022820;28;20184;-62
2024/03/02 09:44:03;;;;;;;4.30;2.10;;;11.30;99.90;;;;;;5021160;28;20723;-65
2024/03/02 09:46:29;;;;;;;3.95;1.67;;;11.40;99.90;;;;;;5021925;28;20223;-64
2024/03/02 09:48:54;;;;;;;2.80;1.48;;;11.40;99.90;;;;;;5023604;28;20192;-65
2024/03/02 09:51:20;;;;;;;4.43;1.60;;;11.50;99.90;;;;;;5009685;28;20564;-65
2024/03/02 09:53:48;;;;;;;3.38;1.67;;;11.50;99.90;;;;;;5022789;28;20188;-65
2024/03/02 09:56:15;;;;;;;5.05;1.60;;;11.50;99.90;;;;;;5022310;28;20183;-64
2024/03/02 09:58:42;;;;;;;7.05;1.95;;;11.60;99.90;;;;;;5022494;28;20208;-63
2024/03/02 10:01:09;;;;;;;2.33;1.58;;;11.60;99.90;;;;;;5020447;28;20171;-65
2024/03/02 10:03:37;;;;;;;3.30;1.52;;;11.60;99.90;;;;;;5022903;28;20208;-66
2024/03/02 10:06:23;;;;;;;2.55;1.65;;;11.60;99.90;;;;;;5022642;28;20265;-64
2024/03/02 10:08:49;;;;;;;3.05;1.60;;;11.60;99.90;;;;;;5022193;28;20273;-69
2024/03/02 10:11:28;;;;;;;10.82;2.28;;;11.60;99.90;;;;;;5022550;28;20594;-63
2024/03/02 10:14:08;;;;;;;3.42;2.13;;;11.70;99.90;;;;;;5021971;28;20188;-65
2024/03/02 10:16:35;;;;;;;5.85;2.72;;;11.80;99.90;;;;;;5036397;28;20757;-66
2024/03/02 10:19:34;;;;;;;2.72;1.55;;;11.90;99.90;;;;;;5022210;28;21390;-64
2024/03/02 10:22:02;;;;;;;3.75;1.40;;;11.90;99.90;;;;;;5009920;28;20624;-64
2024/03/02 10:24:40;;;;;;;2.10;1.45;;;12.00;99.90;;;;;;5018077;28;20278;-64
2024/03/02 10:27:23;;;;;;;2.78;1.45;;;12.00;99.90;;;;;;5021430;28;20227;-70
2024/03/02 10:29:49;;;;;;;3.58;2.20;;;12.10;99.90;;;;;;5021846;28;20219;-70
2024/03/02 10:32:16;;;;;;;2.55;1.60;;;12.20;99.90;;;;;;5021848;28;20184;-72
2024/03/02 10:34:44;;;;;;;2.10;1.40;;;12.30;99.90;;;;;;5021522;28;20548;-70
2024/03/02 10:37:11;;;;;;;4.05;1.70;;;12.30;99.90;;;;;;5031986;28;20200;-70
2024/03/02 10:39:41;;;;;;;2.97;1.38;;;12.30;99.90;;;;;;5036532;28;20194;-69
2024/03/02 10:42:08;;;;;;;3.88;2.03;;;12.30;99.90;;;;;;5019575;28;20204;-70
2024/03/02 10:44:34;;;;;;;3.20;1.90;;;12.30;99.90;;;;;;5021795;28;20629;-70
2024/03/02 10:47:03;;;;;;;3.65;1.63;;;12.30;99.90;;;;;;5036602;28;20235;-68
2024/03/02 10:49:30;;;;;;;3.28;1.30;;;12.30;99.90;;;;;;5036175;28;20288;-70
2024/03/02 10:51:56;;;;;;;5.03;1.67;;;12.30;99.90;;;;;;5021686;28;20180;-68
2024/03/02 10:54:26;;;;;;;5.88;1.80;;;12.30;99.90;;;;;;5021887;28;20648;-66
2024/03/02 10:56:54;;;;;;;3.33;1.50;;;12.30;99.90;;;;;;5020314;28;20241;-69
2024/03/02 10:59:28;;;;;;;3.10;1.70;;;12.30;99.90;;;;;;5021727;28;20188;-65
2024/03/02 11:02:00;;;;;;;6.35;1.77;;;12.30;99.90;;;;;;5020400;28;21068;-67
2024/03/02 11:04:27;;;;;;;5.97;1.70;;;12.40;99.90;;;;;;5021297;28;20211;-68
2024/03/02 11:07:00;;;;;;;4.90;1.90;;;12.40;99.90;;;;;;5020483;28;20207;-68
2024/03/02 11:09:29;;;;;;;3.53;1.50;;;12.40;99.90;;;;;;5034302;28;20215;-68
2024/03/02 11:12:09;;;;;;;3.22;1.50;;;12.40;99.90;;;;;;5019833;28;20204;-69
2024/03/02 11:14:40;;;;;;;4.30;1.55;;;12.40;99.90;;;;;;5020393;28;21000;-65
2024/03/02 11:17:07;;;;;;;4.60;2.20;;;12.40;99.90;;;;;;5020929;28;20223;-66
2024/03/02 11:19:34;;;;;;;3.33;2.05;;;12.40;99.90;;;;;;5020246;28;20202;-65
2024/03/02 11:22:02;;;;;;;3.33;1.90;;;12.40;99.90;;;;;;4991753;28;21158;-63
2024/03/02 11:24:32;;;;;;;3.70;1.88;;;12.30;99.90;;;;;;5001251;28;20188;-72
2024/03/02 11:26:58;;;;;;;3.38;2.03;;;12.30;99.90;;;;;;5015489;28;20223;-67
2024/03/02 11:29:36;;;;;;;3.40;1.80;;;12.30;99.90;;;;;;5001535;28;20422;-65
2024/03/02 11:32:02;;;;;;;2.10;1.33;;;12.30;99.90;;;;;;5000590;28;20219;-65
2024/03/02 11:34:33;;;;;;;6.20;1.80;;;12.30;99.90;;;;;;5001959;28;20197;-65
2024/03/02 11:37:00;;;;;;;2.97;1.70;;;12.30;99.90;;;;;;5000092;28;20657;-64
2024/03/02 11:39:27;;;;;;;5.05;1.80;;;12.30;99.90;;;;;;5001083;28;20220;-65
2024/03/02 11:41:54;;;;;;;4.80;1.92;;;12.20;99.90;;;;;;5000878;28;20229;-66
2024/03/02 11:44:20;;;;;;;2.50;1.70;;;12.20;99.90;;;;;;5014822;28;20208;-64
2024/03/02 11:46:51;;;;;;;3.88;1.95;;;12.20;99.90;;;;;;5001057;28;20232;-64
2024/03/02 11:49:46;;;;;;;2.88;1.80;;;12.20;99.90;;;;;;5001032;28;20213;-67
2024/03/02 11:52:14;;;;;;;3.90;1.75;;;12.10;99.90;;;;;;5000146;28;20189;-65
2024/03/02 11:54:48;;;;;;;5.35;2.20;;;12.10;99.90;;;;;;5000331;28;20299;-64
2024/03/02 11:57:27;;;;;;;3.58;1.75;;;12.20;99.90;;;;;;5000435;28;20238;-65
2024/03/02 11:59:53;;;;;;;2.30;1.60;;;12.30;99.90;;;;;;5001407;28;20188;-64
2024/03/02 12:02:20;;;;;;;4.78;1.80;;;12.30;99.90;;;;;;5000525;28;20208;-63
2024/03/02 12:04:48;;;;;;;3.88;1.77;;;12.40;99.90;;;;;;4998891;28;20247;-66
2024/03/02 12:07:22;;;;;;;3.95;1.60;;;12.40;99.90;;;;;;5000671;28;20283;-70
2024/03/02 12:09:48;;;;;;;5.10;1.90;;;12.40;99.90;;;;;;5014483;28;20218;-65
2024/03/02 12:12:18;;;;;;;3.80;2.40;;;12.50;99.90;;;;;;5000260;28;20275;-67
2024/03/02 12:14:51;;;;;;;8.07;2.20;;;12.50;99.90;;;;;;4999928;28;20180;-65
2024/03/02 12:17:17;;;;;;;3.85;1.85;;;12.50;99.90;;;;;;5000713;28;20200;-65
2024/03/02 12:19:43;;;;;;;2.35;1.50;;;12.60;99.90;;;;;;5000145;28;20199;-65
2024/03/02 12:22:08;;;;;;;4.53;1.60;;;12.70;99.90;;;;;;5000033;28;20192;-66
2024/03/02 12:24:34;;;;;;;3.45;1.52;;;12.70;99.90;;;;;;5003494;28;20192;-64
2024/03/02 12:27:00;;;;;;;6.22;1.52;;;12.60;99.90;;;;;;5004308;28;20193;-66
2024/03/02 12:29:26;;;;;;;6.65;1.95;;;12.60;99.90;;;;;;5004241;28;20661;-65
2024/03/02 12:31:52;;;;;;;3.88;1.77;;;12.60;99.90;;;;;;5005022;28;20192;-66
2024/03/02 12:34:19;;;;;;;3.33;2.30;;;12.60;99.90;;;;;;5004429;28;20189;-65
2024/03/02 12:36:49;;;;;;;4.20;2.33;;;12.60;99.90;;;;;;5004305;28;20192;-65
2024/03/02 12:39:16;;;;;;;4.47;2.20;;;12.70;99.90;;;;;;5004129;28;20185;-65
2024/03/02 12:41:43;;;;;;;4.22;2.47;;;12.80;99.90;;;;;;5003796;28;20703;-65
2024/03/02 12:44:09;;;;;;;4.55;2.08;;;12.80;99.90;;;;;;5003514;28;20207;-64
2024/03/02 12:46:37;;;;;;;2.75;2.10;;;12.80;99.90;;;;;;5003491;28;20307;-66
2024/03/02 12:49:15;;;;;;;5.47;2.20;;;12.90;99.90;;;;;;5018325;28;20290;-64
2024/03/02 12:51:42;;;;;;;5.40;2.72;;;12.90;99.90;;;;;;5003894;28;20665;-61
2024/03/02 12:54:09;;;;;;;9.70;4.95;;;12.90;99.90;;;;;;5003564;28;20724;-64
2024/03/02 12:56:37;;;;;;;5.15;2.40;;;13.00;99.90;;;;;;5004043;28;20278;-66
2024/03/02 12:59:03;;;;;;;7.20;2.92;;;13.00;99.90;;;;;;5003487;28;20212;-65